Time;durP1;ratioP1;P1;durP2;ratioP2;P2;SDS_P1;SDS_P2;PMS_P1;PMS_P2;Temp;Humidity;BMP_temperature;BMP_pressure;BME280_temperature;BME280_humidity;BME280_pressure;Samples;Min_cycle;Max_cycle;Signal;HPM_P1;HPM_P2
2023/02/02 00:01:11;;;;;;;;;;;;;;;28.13;21.56;100613.22;5077629;28;1969;-30
2023/02/02 00:03:37;;;;;;;;;;;;;;;28.43;20.79;100612.25;5077562;28;1135;-28
2023/02/02 00:06:02;;;;;;;;;;;;;;;28.68;20.60;100604.53;5077124;28;1013;-27
2023/02/02 00:08:28;;;;;;;;;;;;;;;28.44;21.04;100605.81;5077174;28;1019;-28
2023/02/02 00:10:53;;;;;;;;;;;;;;;28.11;21.39;100607.19;5077675;28;1157;-27
2023/02/02 00:13:18;;;;;;;;;;;;;;;27.22;21.72;100608.03;5076822;28;1039;-28
2023/02/02 00:15:44;;;;;;;;;;;;;;;26.57;22.72;100605.81;5077499;28;1329;-29
2023/02/02 00:18:09;;;;;;;;;;;;;;;28.08;21.47;100599.44;5077060;28;1171;-27
2023/02/02 00:20:34;;;;;;;;;;;;;;;27.01;22.30;100598.78;5070752;28;1902;-30
2023/02/02 00:23:00;;;;;;;;;;;;;;;26.47;22.90;100587.19;5069990;28;1152;-26
2023/02/02 00:25:25;;;;;;;;;;;;;;;27.76;21.75;100586.22;5077494;28;1193;-30
2023/02/02 00:27:51;;;;;;;;;;;;;;;27.68;21.86;100581.78;5077059;28;1083;-27
2023/02/02 00:30:16;;;;;;;;;;;;;;;27.95;21.46;100589.31;5058142;28;1133;-28
2023/02/02 00:32:41;;;;;;;;;;;;;;;28.31;21.09;100590.28;5076717;28;1019;-28
2023/02/02 00:35:07;;;;;;;;;;;;;;;28.08;21.17;100584.06;5076634;28;1024;-26
2023/02/02 00:37:32;;;;;;;;;;;;;;;27.77;21.77;100584.34;5076838;28;1051;-29
2023/02/02 00:39:58;;;;;;;;;;;;;;;27.69;21.31;100572.66;5076664;28;1127;-29
2023/02/02 00:42:23;;;;;;;;;;;;;;;27.92;21.37;100601.38;5076711;28;1901;-29
2023/02/02 00:47:32;;;;;;;;;;;;;;;28.07;21.26;100592.34;5076263;28;1042;-30
2023/02/02 00:49:57;;;;;;;;;;;;;;;28.21;21.02;100588.75;5075473;28;2602;-29
2023/02/02 00:52:22;;;;;;;;;;;;;;;27.14;22.05;100581.94;5071818;28;1024;-28
2023/02/02 00:54:48;;;;;;;;;;;;;;;26.96;22.62;100578.75;5058548;28;890;-28
2023/02/02 00:57:13;;;;;;;;;;;;;;;27.88;21.14;100575.75;5076012;28;1139;-27
2023/02/02 00:59:38;;;;;;;;;;;;;;;26.68;22.71;100565.88;5076181;28;1012;-29
2023/02/02 01:02:04;;;;;;;;;;;;;;;26.79;22.76;100562.75;5076234;28;1917;-28
2023/02/02 01:04:29;;;;;;;;;;;;;;;28.11;21.20;100566.63;5076264;28;1051;-29
2023/02/02 01:06:54;;;;;;;;;;;;;;;28.42;20.90;100561.88;5075507;28;1134;-32
2023/02/02 01:09:20;;;;;;;;;;;;;;;28.69;20.57;100554.81;5076381;28;1260;-27
2023/02/02 01:11:45;;;;;;;;;;;;;;;28.41;20.89;100558.34;5076212;28;1033;-30
2023/02/02 01:14:10;;;;;;;;;;;;;;;28.16;21.45;100552.50;5076176;28;1177;-29
2023/02/02 01:16:35;;;;;;;;;;;;;;;26.94;22.65;100551.97;5076260;28;1119;-28
2023/02/02 01:19:01;;;;;;;;;;;;;;;27.23;22.52;100552.13;5075394;28;896;-30
2023/02/02 01:21:26;;;;;;;;;;;;;;;27.68;21.37;100552.06;5075740;28;1955;-28
2023/02/02 01:23:51;;;;;;;;;;;;;;;26.60;22.69;100553.31;5076232;28;1023;-28
2023/02/02 01:26:17;;;;;;;;;;;;;;;26.43;22.95;100561.56;5076022;28;972;-27
2023/02/02 01:28:42;;;;;;;;;;;;;;;27.83;21.69;100553.84;5075974;28;1211;-31
2023/02/02 01:31:11;;;;;;;;;;;;;;;27.98;21.47;100554.63;5064963;28;1055;-27
2023/02/02 01:33:37;;;;;;;;;;;;;;;28.28;21.09;100548.22;5075831;28;1127;-31
2023/02/02 01:36:05;;;;;;;;;;;;;;;28.07;21.50;100559.91;5076037;28;1080;-32
2023/02/02 01:38:30;;;;;;;;;;;;;;;27.92;21.63;100558.13;5075785;28;1111;-29
2023/02/02 01:40:56;;;;;;;;;;;;;;;27.08;22.21;100544.88;5075676;28;1963;-30
2023/02/02 01:43:21;;;;;;;;;;;;;;;26.42;23.25;100549.13;5075757;28;840;-29
2023/02/02 01:45:46;;;;;;;;;;;;;;;27.87;21.90;100552.44;5075779;28;1090;-29
2023/02/02 01:48:12;;;;;;;;;;;;;;;28.35;21.11;100541.03;5075769;28;1051;-27
2023/02/02 01:50:37;;;;;;;;;;;;;;;28.62;20.87;100548.50;5075829;28;2344;-27
2023/02/02 01:53:02;;;;;;;;;;;;;;;28.41;21.09;100535.88;5076055;28;1078;-29
2023/02/02 01:55:28;;;;;;;;;;;;;;;28.10;21.31;100546.00;5057702;28;1009;-27
2023/02/02 01:57:53;;;;;;;;;;;;;;;27.28;22.05;100546.19;5077950;28;1101;-29
2023/02/02 02:00:24;;;;;;;;;;;;;;;26.50;23.15;100545.50;5079964;28;1047;-26
2023/02/02 02:02:49;;;;;;;;;;;;;;;27.90;21.56;100552.06;5062578;28;1994;-27
2023/02/02 02:05:15;;;;;;;;;;;;;;;26.90;22.56;100554.19;5079551;28;1072;-29
2023/02/02 02:07:40;;;;;;;;;;;;;;;26.46;23.37;100544.22;5066572;28;862;-27
2023/02/02 02:10:06;;;;;;;;;;;;;;;27.68;22.28;100543.94;5061781;28;1131;-29
2023/02/02 02:12:31;;;;;;;;;;;;;;;27.90;21.62;100543.97;5079316;28;987;-27
2023/02/02 02:17:46;;;;;;;;;;;;;;;28.32;21.21;100540.56;5079414;28;1174;-28
2023/02/02 02:28:52;;;;;;;;;;;;;;;27.62;21.56;100548.25;5078969;28;862;-31
2023/02/02 02:31:39;;;;;;;;;;;;;;;26.76;22.63;100539.66;5079011;28;1095;-27
2023/02/02 02:34:05;;;;;;;;;;;;;;;28.14;21.19;100522.13;5061464;28;1199;-26
2023/02/02 02:36:30;;;;;;;;;;;;;;;27.14;22.30;100544.13;5078947;28;989;-27
2023/02/02 02:38:58;;;;;;;;;;;;;;;26.69;22.75;100544.13;5078786;28;1071;-27
2023/02/02 02:41:26;;;;;;;;;;;;;;;28.13;21.66;100545.59;5061159;28;1961;-31
2023/02/02 02:43:54;;;;;;;;;;;;;;;28.51;20.94;100540.94;5060876;28;1036;-27
2023/02/02 02:46:19;;;;;;;;;;;;;;;28.53;21.11;100533.47;5079048;28;1048;-32
2023/02/02 02:48:44;;;;;;;;;;;;;;;28.41;21.16;100528.56;5078789;28;984;-27
2023/02/02 02:51:28;;;;;;;;;;;;;;;28.16;21.42;100544.41;5054483;28;2370;-28
2023/02/02 02:53:54;;;;;;;;;;;;;;;27.19;22.31;100546.28;5078481;28;1068;-28
2023/02/02 02:56:21;;;;;;;;;;;;;;;26.40;23.42;100540.38;5060662;28;1075;-26
2023/02/02 02:58:48;;;;;;;;;;;;;;;27.86;21.97;100513.75;5060593;28;1357;-31
2023/02/02 03:01:16;;;;;;;;;;;;;;;28.68;20.81;100541.44;5060661;28;1902;-28
2023/02/02 03:03:44;;;;;;;;;;;;;;;28.64;20.88;100513.97;5060727;28;1202;-29
2023/02/02 03:06:12;;;;;;;;;;;;;;;28.53;21.07;100547.00;5079057;28;1023;-27
2023/02/02 03:08:43;;;;;;;;;;;;;;;28.32;21.51;100540.56;5060401;28;868;-27
2023/02/02 03:11:09;;;;;;;;;;;;;;;27.29;22.22;100546.00;5060778;28;1044;-27
2023/02/02 03:13:34;;;;;;;;;;;;;;;26.39;23.33;100538.72;5077875;28;1067;-27
2023/02/02 03:15:59;;;;;;;;;;;;;;;28.01;21.90;100545.28;5078408;28;1023;-28
2023/02/02 03:18:26;;;;;;;;;;;;;;;27.05;22.42;100542.56;5060294;28;1210;-29
2023/02/02 03:20:51;;;;;;;;;;;;;;;26.51;23.29;100544.47;5051618;28;1974;-29
2023/02/02 03:23:17;;;;;;;;;;;;;;;27.63;22.34;100544.50;5073622;28;1083;-27
2023/02/02 03:25:42;;;;;;;;;;;;;;;27.82;22.12;100544.94;5078505;28;1039;-27
2023/02/02 03:28:07;;;;;;;;;;;;;;;28.13;21.61;100528.56;5078037;28;1064;-31
2023/02/02 03:30:33;;;;;;;;;;;;;;;28.48;21.09;100534.88;5078228;28;1044;-30
2023/02/02 03:32:58;;;;;;;;;;;;;;;28.22;21.32;100540.91;5059497;28;864;-29
2023/02/02 03:35:24;;;;;;;;;;;;;;;28.16;21.62;100544.41;5060248;28;1087;-28
2023/02/02 03:37:50;;;;;;;;;;;;;;;28.05;21.66;100543.03;5078047;28;1155;-30
2023/02/02 03:40:15;;;;;;;;;;;;;;;28.14;21.43;100539.19;5078013;28;1163;-30
2023/02/02 03:42:40;;;;;;;;;;;;;;;28.16;21.59;100536.28;5077968;28;1898;-27
2023/02/02 03:45:06;;;;;;;;;;;;;;;28.30;21.40;100538.06;5077555;28;854;-28
2023/02/02 03:47:31;;;;;;;;;;;;;;;28.23;21.20;100538.00;5077715;28;1104;-32
2023/02/02 03:49:57;;;;;;;;;;;;;;;28.33;21.12;100528.72;5076801;28;2258;-27
2023/02/02 03:52:22;;;;;;;;;;;;;;;27.34;22.02;100529.22;5072358;28;1095;-30
2023/02/02 03:54:48;;;;;;;;;;;;;;;26.61;23.46;100525.34;5077502;28;1012;-27
2023/02/02 03:57:13;;;;;;;;;;;;;;;27.63;21.96;100527.44;5076453;28;1202;-29
2023/02/02 03:59:38;;;;;;;;;;;;;;;26.50;22.80;100507.75;5077206;28;1027;-28
2023/02/02 04:02:03;;;;;;;;;;;;;;;26.37;23.15;100525.41;5077420;28;1965;-29
2023/02/02 04:04:29;;;;;;;;;;;;;;;28.00;21.52;100524.69;5077602;28;1194;-30
2023/02/02 04:06:54;;;;;;;;;;;;;;;28.18;21.43;100534.19;5059704;28;1048;-27
2023/02/02 04:09:20;;;;;;;;;;;;;;;28.18;21.33;100505.28;5076980;28;850;-31
2023/02/02 04:11:45;;;;;;;;;;;;;;;28.30;21.16;100524.53;5077189;28;1123;-31
2023/02/02 04:14:10;;;;;;;;;;;;;;;28.23;21.39;100526.34;5077344;28;1108;-27
2023/02/02 04:16:36;;;;;;;;;;;;;;;27.16;22.25;100526.94;5077326;28;1102;-30
2023/02/02 04:19:02;;;;;;;;;;;;;;;26.33;23.68;100521.38;5058749;28;1071;-28
2023/02/02 04:21:28;;;;;;;;;;;;;;;27.84;22.01;100532.03;5076197;28;2288;-29
2023/02/02 04:23:53;;;;;;;;;;;;;;;28.40;21.31;100532.31;5077489;28;1016;-30
2023/02/02 04:26:18;;;;;;;;;;;;;;;25.52;20.16;100528.88;5059203;28;1086;-27
2023/02/02 04:28:44;;;;;;;;;;;;;;;25.20;22.41;100528.00;5076790;28;1020;-27
2023/02/02 04:31:09;;;;;;;;;;;;;;;25.11;21.89;100540.66;5076793;28;1103;-26
2023/02/02 04:33:35;;;;;;;;;;;;;;;24.83;21.64;100544.59;5076752;28;960;-27
2023/02/02 04:36:00;;;;;;;;;;;;;;;24.78;21.32;100546.13;5076852;28;1107;-30
2023/02/02 04:38:25;;;;;;;;;;;;;;;24.67;20.96;100547.34;5076722;28;1177;-27
2023/02/02 04:40:51;;;;;;;;;;;;;;;24.76;20.63;100546.28;5077087;28;1893;-27
2023/02/02 04:43:16;;;;;;;;;;;;;;;24.70;20.39;100547.84;5076735;28;1143;-26
2023/02/02 04:45:41;;;;;;;;;;;;;;;24.35;19.85;100555.28;5076491;28;864;-30
2023/02/02 04:48:07;;;;;;;;;;;;;;;22.69;20.18;100400.06;5076453;28;1164;-30
2023/02/02 04:50:32;;;;;;;;;;;;;;;23.26;19.93;100559.56;5076723;28;1770;-28
2023/02/02 04:52:57;;;;;;;;;;;;;;;22.86;19.78;100560.03;5076643;28;1168;-27
2023/02/02 04:55:23;;;;;;;;;;;;;;;25.61;18.63;100559.25;5075605;28;1516;-30
2023/02/02 04:57:48;;;;;;;;;;;;;;;26.44;17.83;100551.63;5075956;28;1091;-31
2023/02/02 05:00:13;;;;;;;;;;;;;;;26.80;17.89;100523.94;5076271;28;1003;-27
2023/02/02 05:02:39;;;;;;;;;;;;;;;26.91;17.79;100555.00;5075971;28;1919;-30
2023/02/02 05:05:05;;;;;;;;;;;;;;;27.18;18.05;100557.25;5075909;28;1052;-28
2023/02/02 05:07:30;;;;;;;;;;;;;;;27.28;17.91;100548.88;5076225;28;1225;-28
2023/02/02 05:09:55;;;;;;;;;;;;;;;27.38;17.55;100552.94;5068260;28;915;-28
2023/02/02 05:12:21;;;;;;;;;;;;;;;27.41;17.35;100553.59;5075562;28;948;-27
2023/02/02 05:14:46;;;;;;;;;;;;;;;27.47;17.21;100556.38;5076035;28;1019;-29
2023/02/02 05:17:11;;;;;;;;;;;;;;;27.49;17.22;100558.88;5075514;28;1260;-29
2023/02/02 05:19:36;;;;;;;;;;;;;;;27.50;17.24;100555.16;5066553;28;977;-27
2023/02/02 05:22:02;;;;;;;;;;;;;;;27.45;16.69;100560.28;5074696;28;1969;-28
2023/02/02 05:24:27;;;;;;;;;;;;;;;27.51;16.51;100554.13;5070030;28;1376;-31
2023/02/02 05:26:57;;;;;;;;;;;;;;;27.36;16.37;100562.28;5076155;28;1090;-28
2023/02/02 05:29:22;;;;;;;;;;;;;;;27.47;16.19;100569.03;5074786;28;1158;-28
2023/02/02 05:31:47;;;;;;;;;;;;;;;27.26;16.17;100571.50;5073842;28;1256;-29
2023/02/02 05:34:13;;;;;;;;;;;;;;;27.37;15.81;100569.34;5076041;28;1024;-28
2023/02/02 05:36:38;;;;;;;;;;;;;;;27.33;15.65;100565.34;5076535;28;1218;-28
2023/02/02 05:39:04;;;;;;;;;;;;;;;27.40;16.30;100571.66;5076265;28;1055;-28
2023/02/02 05:41:29;;;;;;;;;;;;;;;27.51;16.54;100576.56;5076837;28;1878;-27
2023/02/02 05:43:55;;;;;;;;;;;;;;;27.53;16.58;100570.16;5076141;28;1223;-27
2023/02/02 05:46:20;;;;;;;;;;;;;;;27.60;17.28;100588.13;5057810;28;1281;-30
2023/02/02 05:48:45;;;;;;;;;;;;;;;27.71;17.24;100589.50;5058513;28;1064;-29
2023/02/02 05:51:12;;;;;;;;;;;;;;;27.87;17.28;100582.19;5076189;28;1151;-27
2023/02/02 05:53:38;;;;;;;;;;;;;;;28.13;17.26;100588.06;5076214;28;1155;-27
2023/02/02 05:56:03;;;;;;;;;;;;;;;28.01;17.34;100585.84;5076078;28;1140;-30
2023/02/02 05:58:29;;;;;;;;;;;;;;;28.07;17.64;100589.66;5075927;28;1276;-31
2023/02/02 06:00:54;;;;;;;;;;;;;;;27.96;17.91;100589.13;5076304;28;1906;-27
2023/02/02 06:03:19;;;;;;;;;;;;;;;27.88;18.46;100559.53;5076041;28;1099;-27
2023/02/02 06:05:45;;;;;;;;;;;;;;;28.27;18.29;100592.53;5075698;28;1070;-28
2023/02/02 06:08:10;;;;;;;;;;;;;;;28.19;18.52;100595.38;5074540;28;1191;-29
2023/02/02 06:10:37;;;;;;;;;;;;;;;28.14;18.44;100597.84;5074096;28;1064;-29
2023/02/02 06:13:03;;;;;;;;;;;;;;;26.75;20.27;100589.25;5075582;28;1042;-28
2023/02/02 06:15:28;;;;;;;;;;;;;;;26.14;20.75;100593.63;5075910;28;1064;-31
2023/02/02 06:17:53;;;;;;;;;;;;;;;28.16;18.72;100593.06;5075845;28;1320;-31
2023/02/02 06:20:18;;;;;;;;;;;;;;;28.39;18.44;100583.94;5075538;28;1205;-32
2023/02/02 06:22:44;;;;;;;;;;;;;;;28.54;18.60;100586.53;5075790;28;1902;-29
2023/02/02 06:25:09;;;;;;;;;;;;;;;26.67;20.62;100596.59;5076298;28;1055;-30
2023/02/02 06:27:34;;;;;;;;;;;;;;;26.04;21.28;100588.47;5076202;28;1241;-29
2023/02/02 06:30:00;;;;;;;;;;;;;;;27.63;19.41;100595.84;5075321;28;1171;-31
2023/02/02 06:32:27;;;;;;;;;;;;;;;28.37;18.61;100608.47;5075775;28;1134;-29
2023/02/02 06:34:52;;;;;;;;;;;;;;;28.23;18.36;100613.72;5068050;28;1303;-28
2023/02/02 06:37:17;;;;;;;;;;;;;;;28.27;17.15;100610.63;5060555;28;964;-30
2023/02/02 06:39:43;;;;;;;;;;;;;;;26.43;19.77;100611.97;5062575;28;1144;-29
2023/02/02 06:42:08;;;;;;;;;;;;;;;26.97;19.72;100605.56;5061924;28;1902;-31
2023/02/02 06:44:33;;;;;;;;;;;;;;;28.08;18.81;100611.09;5070394;28;1004;-28
2023/02/02 06:46:58;;;;;;;;;;;;;;;28.59;18.46;100611.16;5058330;28;1083;-29
2023/02/02 06:49:24;;;;;;;;;;;;;;;28.48;18.53;100612.50;5071634;28;1075;-29
2023/02/02 06:51:49;;;;;;;;;;;;;;;26.45;20.71;100608.09;5072424;28;1108;-31
2023/02/02 06:54:14;;;;;;;;;;;;;;;25.98;20.99;100609.91;5071246;28;1175;-27
2023/02/02 06:56:40;;;;;;;;;;;;;;;27.61;19.67;100616.78;5067219;28;1390;-28
2023/02/02 06:59:05;;;;;;;;;;;;;;;28.09;18.88;100620.06;5075899;28;1195;-32
2023/02/02 07:01:31;;;;;;;;;;;;;;;28.36;18.63;100626.56;5078037;28;1959;-28
2023/02/02 07:03:56;;;;;;;;;;;;;;;26.74;20.68;100633.44;5065204;28;1120;-29
2023/02/02 07:06:22;;;;;;;;;;;;;;;26.00;21.71;100632.16;5050750;28;1108;-30
2023/02/02 07:08:49;;;;;;;;;;;;;;;27.55;19.99;100625.66;5058679;28;1033;-31
2023/02/02 07:11:14;;;;;;;;;;;;;;;28.29;19.48;100632.91;5058459;28;1200;-28
2023/02/02 07:13:39;;;;;;;;;;;;;;;27.12;20.71;100635.31;5072264;28;1064;-28
2023/02/02 07:16:05;;;;;;;;;;;;;;;26.39;21.79;100633.91;5067982;28;1112;-29
2023/02/02 07:18:30;;;;;;;;;;;;;;;27.57;20.65;100626.31;5064752;28;1027;-29
2023/02/02 07:20:59;;;;;;;;;;;;;;;28.25;19.35;100629.75;5074796;28;1937;-32
2023/02/02 07:23:25;;;;;;;;;;;;;;;28.31;19.53;100626.28;5069179;28;1126;-30
2023/02/02 07:25:58;;;;;;;;;;;;;;;27.99;19.81;100631.19;5068098;28;1215;-28
2023/02/02 07:28:24;;;;;;;;;;;;;;;26.25;21.67;100635.53;5069291;28;1298;-29
2023/02/02 07:30:49;;;;;;;;;;;;;;;27.15;21.38;100631.38;5046280;28;1589;-31
2023/02/02 07:33:14;;;;;;;;;;;;;;;28.31;19.74;100631.69;5077034;28;991;-28
2023/02/02 07:35:40;;;;;;;;;;;;;;;28.02;19.57;100633.50;5072118;28;1311;-31
2023/02/02 07:38:05;;;;;;;;;;;;;;;26.50;21.16;100638.06;5067229;28;1272;-30
2023/02/02 07:40:30;;;;;;;;;;;;;;;26.93;21.61;100633.94;5078220;28;1187;-30
2023/02/02 07:42:59;;;;;;;;;;;;;;;28.32;19.68;100640.66;5078029;28;1910;-30
2023/02/02 07:45:24;;;;;;;;;;;;;;;28.83;19.28;100652.31;5069541;28;1155;-29
2023/02/02 07:47:54;;;;;;;;;;;;;;;27.59;20.27;100645.03;5071128;28;1352;-28
2023/02/02 07:50:19;;;;;;;;;;;;;;;26.59;21.54;100638.81;5078219;28;1086;-30
2023/02/02 07:52:44;;;;;;;;;;;;;;;27.43;20.94;100646.06;5066197;28;1063;-32
2023/02/02 07:55:10;;;;;;;;;;;;;;;28.50;19.70;100652.88;5076658;28;1008;-28
2023/02/02 07:57:36;;;;;;;;;;;;;;;28.31;19.80;100663.31;5076776;28;1560;-29
2023/02/02 08:00:01;;;;;;;;;;;;;;;26.76;21.27;100650.28;5067422;28;1143;-28
2023/02/02 08:02:27;;;;;;;;;;;;;;;27.04;21.23;100654.28;5070841;28;1917;-29
2023/02/02 08:04:52;;;;;;;;;;;;;;;28.56;19.74;100654.84;5058146;28;1076;-28
2023/02/02 08:07:20;;;;;;;;;;;;;;;28.53;19.29;100652.53;5072803;28;1028;-31
2023/02/02 08:09:46;;;;;;;;;;;;;;;26.43;21.22;100657.81;5082768;28;1018;-28
2023/02/02 08:12:12;;;;;;;;;;;;;;;26.71;21.29;100630.31;5070334;28;1207;-30
2023/02/02 08:14:37;;;;;;;;;;;;;;;28.48;19.98;100653.94;5058402;28;1048;-32
2023/02/02 08:17:02;;;;;;;;;;;;;;;28.24;19.86;100650.56;5077539;28;1059;-29
2023/02/02 08:19:27;;;;;;;;;;;;;;;26.98;20.92;100641.47;5076728;28;1052;-29
2023/02/02 08:21:53;;;;;;;;;;;;;;;26.83;21.26;100647.72;5083393;28;1910;-30
2023/02/02 08:24:18;;;;;;;;;;;;;;;28.54;19.92;100652.34;5076615;28;1199;-32
2023/02/02 08:26:43;;;;;;;;;;;;;;;28.78;19.91;100652.91;5076969;28;1180;-28
2023/02/02 08:29:10;;;;;;;;;;;;;;;27.54;20.42;100628.56;5076338;28;1101;-32
2023/02/02 08:31:36;;;;;;;;;;;;;;;27.16;20.71;100651.13;5059228;28;1034;-30
2023/02/02 08:34:01;;;;;;;;;;;;;;;27.32;21.34;100655.50;5069042;28;1088;-32
2023/02/02 08:36:27;;;;;;;;;;;;;;;28.54;20.01;100665.84;5066019;28;1081;-30
2023/02/02 08:38:53;;;;;;;;;;;;;;;28.78;19.67;100658.34;5057531;28;1116;-29
2023/02/02 08:41:19;;;;;;;;;;;;;;;27.48;20.63;100668.81;5073037;28;1977;-32
2023/02/02 08:43:44;;;;;;;;;;;;;;;26.71;21.43;100655.41;5071256;28;995;-30
2023/02/02 08:46:12;;;;;;;;;;;;;;;27.74;20.82;100659.38;5050410;28;1175;-30
2023/02/02 08:48:37;;;;;;;;;;;;;;;28.72;19.75;100668.09;5072596;28;1091;-32
2023/02/02 08:51:02;;;;;;;;;;;;;;;28.79;19.30;100678.97;5066506;28;941;-32
2023/02/02 08:53:28;;;;;;;;;;;;;;;27.00;20.91;100669.13;5075414;28;1035;-31
2023/02/02 08:56:09;;;;;;;;;;;;;;;26.74;21.31;100662.31;5063036;28;1075;-30
2023/02/02 08:58:35;;;;;;;;;;;;;;;28.26;19.88;100663.88;5075980;28;1059;-30
2023/02/02 09:01:04;;;;;;;;;;;;;;;28.85;19.14;100671.91;5071007;28;1891;-27
2023/02/02 09:03:30;;;;;;;;;;;;;;;27.94;19.67;100660.66;5069278;28;984;-31
2023/02/02 09:05:55;;;;;;;;;;;;;;;26.76;21.51;100663.78;5076298;28;1024;-31
2023/02/02 09:08:23;;;;;;;;;;;;;;;27.62;20.29;100661.72;5058044;28;1152;-30
2023/02/02 09:10:49;;;;;;;;;;;;;;;28.73;19.13;100652.66;5056710;28;823;-30
2023/02/02 09:13:14;;;;;;;;;;;;;;;27.39;20.58;100659.13;5070136;28;1190;-30
2023/02/02 09:15:39;;;;;;;;;;;;;;;27.04;20.90;100665.09;5076315;28;1246;-33
2023/02/02 09:18:04;;;;;;;;;;;;;;;28.35;19.82;100672.75;5076235;28;1094;-29
2023/02/02 09:20:30;;;;;;;;;;;;;;;28.76;19.23;100660.38;5075792;28;1127;-32
2023/02/02 09:22:56;;;;;;;;;;;;;;;27.49;20.09;100658.84;5076419;28;1890;-29
2023/02/02 09:25:21;;;;;;;;;;;;;;;27.17;20.91;100653.66;5056133;28;1095;-32
2023/02/02 09:27:47;;;;;;;;;;;;;;;28.58;19.54;100661.72;5060713;28;1076;-29
2023/02/02 09:30:12;;;;;;;;;;;;;;;28.79;19.34;100653.75;5057899;28;1102;-32
2023/02/02 09:32:38;;;;;;;;;;;;;;;28.67;19.29;100659.72;5071532;28;1198;-29
2023/02/02 09:35:03;;;;;;;;;;;;;;;27.16;20.16;100645.72;5074595;28;1231;-29
2023/02/02 09:37:29;;;;;;;;;;;;;;;26.74;20.15;100646.13;5056600;28;1683;-29
2023/02/02 09:39:54;;;;;;;;;;;;;;;28.39;18.83;100635.34;5074365;28;1082;-33
2023/02/02 09:42:28;;;;;;;;;;;;;;;28.49;18.77;100633.13;5075303;28;1898;-28
2023/02/02 09:44:53;;;;;;;;;;;;;;;27.15;20.06;100625.97;5056536;28;1312;-28
2023/02/02 09:47:18;;;;;;;;;;;;;;;26.69;20.31;100617.00;5069055;28;1040;-33
2023/02/02 09:49:43;;;;;;;;;;;;;;;27.94;19.26;100610.13;5075706;28;1090;-32
2023/02/02 09:52:13;;;;;;;;;;;;;;;28.59;18.69;100611.16;5075889;28;985;-29
2023/02/02 09:54:40;;;;;;;;;;;;;;;27.18;20.12;100604.00;5057653;28;1203;-28
2023/02/02 09:57:09;;;;;;;;;;;;;;;26.78;20.53;100596.13;5073738;28;1140;-28
2023/02/02 09:59:36;;;;;;;;;;;;;;;26.64;20.67;100581.63;5070740;28;834;-30
2023/02/02 10:02:06;;;;;;;;;;;;;;;26.62;20.47;100579.13;5057673;28;1910;-30
2023/02/02 10:04:50;;;;;;;;;;;;;;;26.46;20.82;100565.78;5057914;28;1170;-29
2023/02/02 10:07:19;;;;;;;;;;;;;;;26.27;20.96;100571.47;5057706;28;1028;-32
2023/02/02 10:09:47;;;;;;;;;;;;;;;26.20;21.57;100567.81;5058238;28;1031;-30
2023/02/02 10:12:13;;;;;;;;;;;;;;;26.25;21.03;100561.88;5072669;28;997;-30
2023/02/02 10:14:38;;;;;;;;;;;;;;;26.34;21.08;100549.19;5075205;28;1103;-31
2023/02/02 10:17:14;;;;;;;;;;;;;;;26.31;20.93;100538.75;5075479;28;1018;-27
2023/02/02 10:19:39;;;;;;;;;;;;;;;26.27;20.93;100552.59;5061069;28;1162;-31
2023/02/02 10:22:23;;;;;;;;;;;;;;;26.30;20.66;100548.69;5059025;28;1894;-30
2023/02/02 10:24:49;;;;;;;;;;;;;;;26.44;20.78;100554.34;5073858;28;1067;-30
2023/02/02 10:27:15;;;;;;;;;;;;;;;26.50;20.56;100551.75;5050055;28;1097;-29
2023/02/02 10:29:54;;;;;;;;;;;;;;;26.76;20.15;100558.56;5072354;28;1317;-28
2023/02/02 10:32:23;;;;;;;;;;;;;;;26.90;20.58;100559.59;5061369;28;1008;-32
2023/02/02 10:34:48;;;;;;;;;;;;;;;26.65;20.39;100551.75;5077412;28;1061;-29
2023/02/02 10:37:13;;;;;;;;;;;;;;;26.80;20.41;100552.78;5072549;28;1095;-30
2023/02/02 10:39:45;;;;;;;;;;;;;;;26.67;20.36;100551.56;5066179;28;1088;-28
2023/02/02 10:42:20;;;;;;;;;;;;;;;26.58;20.61;100549.97;5056540;28;1922;-32
2023/02/02 10:44:52;;;;;;;;;;;;;;;26.34;20.79;100547.31;5075650;28;1167;-28
2023/02/02 10:47:22;;;;;;;;;;;;;;;26.31;20.91;100539.56;5060629;28;1164;-28
2023/02/02 10:49:48;;;;;;;;;;;;;;;27.65;19.78;100543.47;5060942;28;1049;-28
2023/02/02 10:52:16;;;;;;;;;;;;;;;28.21;19.32;100550.88;5060915;28;1260;-30
2023/02/02 10:55:02;;;;;;;;;;;;;;;28.40;19.02;100551.25;5066144;28;1128;-31
2023/02/02 10:57:42;;;;;;;;;;;;;;;27.34;20.03;100550.81;5064781;28;1242;-27
2023/02/02 11:00:08;;;;;;;;;;;;;;;27.36;20.04;100541.50;5073141;28;1318;-28
2023/02/02 11:02:33;;;;;;;;;;;;;;;27.29;19.92;100535.19;5074087;28;1902;-32
2023/02/02 11:07:42;;;;;;;;;;;;;;;27.12;20.30;100538.09;5067355;28;1063;-28
2023/02/02 11:10:08;;;;;;;;;;;;;;;26.85;20.29;100544.97;5077912;28;1083;-30
2023/02/02 11:12:34;;;;;;;;;;;;;;;26.83;20.52;100501.97;5067950;28;1191;-28
2023/02/02 11:15:00;;;;;;;;;;;;;;;26.63;20.74;100518.72;5077983;28;1127;-32
2023/02/02 11:17:26;;;;;;;;;;;;;;;27.73;19.63;100525.28;5078471;28;1251;-28
2023/02/02 11:19:51;;;;;;;;;;;;;;;28.17;19.01;100498.22;5078253;28;1266;-33
2023/02/02 11:22:33;;;;;;;;;;;;;;;28.37;18.88;100527.31;5060286;28;1902;-32
2023/02/02 11:25:33;;;;;;;;;;;;;;;27.18;20.33;100524.84;5059772;28;1009;-29
2023/02/02 11:28:00;;;;;;;;;;;;;;;27.18;20.38;100530.25;5025305;28;1348;-29
2023/02/02 11:30:25;;;;;;;;;;;;;;;28.40;18.94;100512.53;5057144;28;1032;-29
2023/02/02 11:32:51;;;;;;;;;;;;;;;27.22;20.05;100523.47;5058332;28;1087;-31
2023/02/02 11:35:28;;;;;;;;;;;;;;;27.02;20.17;100518.66;5061010;28;1092;-30
2023/02/02 11:37:59;;;;;;;;;;;;;;;26.93;20.56;100517.03;5078009;28;1035;-29
2023/02/02 11:40:26;;;;;;;;;;;;;;;26.58;20.68;100517.59;5059589;28;1147;-30
2023/02/02 11:42:52;;;;;;;;;;;;;;;26.63;20.83;100507.09;5077959;28;1964;-31
2023/02/02 11:45:21;;;;;;;;;;;;;;;27.64;19.38;100507.50;5059530;28;1083;-33
2023/02/02 11:47:47;;;;;;;;;;;;;;;27.27;19.78;100521.03;5076950;28;1099;-29
2023/02/02 11:50:30;;;;;;;;;;;;;;;26.47;20.59;100502.72;5046380;28;1294;-29
2023/02/02 11:52:55;;;;;;;;;;;;;;;27.50;19.61;100506.53;5059976;28;1046;-31
2023/02/02 11:55:24;;;;;;;;;;;;;;;28.10;18.99;100498.16;5077231;28;977;-29
2023/02/02 11:58:10;;;;;;;;;;;;;;;28.24;19.03;100501.78;5060035;28;1199;-31
2023/02/02 12:00:44;;;;;;;;;;;;;;;27.36;20.05;100500.97;5050006;28;1539;-30
2023/02/02 12:03:21;;;;;;;;;;;;;;;26.74;20.75;100493.13;5077890;28;1977;-30
2023/02/02 12:05:48;;;;;;;;;;;;;;;27.66;19.82;100491.91;5057326;28;1211;-30
2023/02/02 12:08:14;;;;;;;;;;;;;;;27.33;20.15;100505.91;5068860;28;1270;-33
2023/02/02 12:10:42;;;;;;;;;;;;;;;26.54;21.15;100503.66;5063114;28;1203;-31
2023/02/02 12:13:07;;;;;;;;;;;;;;;27.36;20.32;100497.47;5075928;28;901;-31
2023/02/02 12:15:47;;;;;;;;;;;;;;;27.96;19.70;100507.22;5066074;28;1207;-30
2023/02/02 12:18:12;;;;;;;;;;;;;;;26.82;20.67;100503.00;5055707;28;929;-31
2023/02/02 12:20:59;;;;;;;;;;;;;;;26.68;21.30;100479.53;5070599;28;1154;-31
2023/02/02 12:23:28;;;;;;;;;;;;;;;27.92;19.88;100485.13;5039397;28;1961;-32
2023/02/02 12:25:58;;;;;;;;;;;;;;;27.67;19.91;100498.16;5042257;28;1040;-31
2023/02/02 12:28:23;;;;;;;;;;;;;;;26.72;20.89;100497.03;5076689;28;1091;-30
2023/02/02 12:30:51;;;;;;;;;;;;;;;27.53;20.75;100498.03;5076294;28;1462;-30
2023/02/02 12:33:16;;;;;;;;;;;;;;;28.37;19.88;100508.38;5076687;28;1145;-34
2023/02/02 12:35:54;;;;;;;;;;;;;;;28.38;19.69;100503.81;5059379;28;1151;-33
2023/02/02 12:38:38;;;;;;;;;;;;;;;26.81;20.75;100490.53;5067477;28;1203;-28
2023/02/02 12:41:21;;;;;;;;;;;;;;;27.30;20.93;100490.09;5067044;28;1969;-30
2023/02/02 12:43:48;;;;;;;;;;;;;;;28.27;20.08;100497.88;5065986;28;1078;-32
2023/02/02 12:46:28;;;;;;;;;;;;;;;28.49;19.72;100489.72;5045594;28;1132;-33
2023/02/02 12:48:53;;;;;;;;;;;;;;;26.86;20.93;100484.59;5072721;28;984;-33
2023/02/02 12:51:19;;;;;;;;;;;;;;;27.30;21.05;100472.03;5076028;28;1059;-33
2023/02/02 12:53:47;;;;;;;;;;;;;;;28.15;19.86;100475.94;5071970;28;1104;-30
2023/02/02 12:56:31;;;;;;;;;;;;;;;26.74;21.13;100463.44;5070222;28;1052;-29
2023/02/02 12:59:15;;;;;;;;;;;;;;;26.88;21.25;100460.91;5072874;28;1175;-29
2023/02/02 13:01:41;;;;;;;;;;;;;;;28.16;19.64;100460.56;5046298;28;1906;-33
2023/02/02 13:04:17;;;;;;;;;;;;;;;28.29;19.42;100459.81;5043206;28;996;-30